Time;durP1;ratioP1;P1;durP2;ratioP2;P2;SDS_P1;SDS_P2;PMS_P1;PMS_P2;Temp;Humidity;BMP_temperature;BMP_pressure;BME280_temperature;BME280_humidity;BME280_pressure;Samples;Min_cycle;Max_cycle;Signal;HPM_P1;HPM_P2
2021/05/07 00:00:47;;;;;;;1999.90;999.90;;;;;;;5.78;100.00;-18064.19;4923023;29;20204;-30
2021/05/07 00:03:33;;;;;;;1999.90;999.90;;;;;;;5.83;100.00;-18065.53;4923512;29;20205;-30
2021/05/07 00:06:20;;;;;;;1999.90;999.90;;;;;;;5.83;100.00;-18065.66;4927514;29;20273;-30
2021/05/07 00:09:14;;;;;;;1999.90;999.90;;;;;;;5.63;100.00;-18060.28;4923301;29;20205;-30
2021/05/07 00:12:00;;;;;;;1999.90;999.90;;;;;;;5.34;100.00;-18052.50;4922998;29;20230;-28
2021/05/07 00:14:45;;;;;;;1999.90;999.90;;;;;;;5.59;100.00;-18059.06;4923717;29;20205;-28
2021/05/07 00:17:32;;;;;;;1999.90;999.90;;;;;;;5.36;100.00;-18053.16;4924415;29;20431;-28
2021/05/07 00:20:18;;;;;;;1999.90;999.90;;;;;;;5.46;100.00;-18055.72;4924289;29;20201;-28
2021/05/07 00:23:06;;;;;;;1999.90;999.90;;;;;;;5.85;100.00;-18066.19;4922620;29;20209;-28
2021/05/07 00:25:56;;;;;;;1999.90;999.90;;;;;;;6.12;100.00;-18073.31;4922318;29;20328;-28
2021/05/07 00:28:42;;;;;;;1999.90;999.90;;;;;;;6.18;100.00;-18074.91;4922308;29;20339;-28
2021/05/07 00:31:28;;;;;;;1999.90;999.90;;;;;;;6.53;100.00;-18084.03;4924769;29;20204;-28
2021/05/07 00:34:14;;;;;;;1999.90;999.90;;;;;;;6.66;100.00;-18087.38;4921865;29;20274;-29
2021/05/07 00:37:00;;;;;;;1999.90;999.90;;;;;;;6.22;100.00;-18075.84;4922229;29;20356;-28
2021/05/07 00:39:47;;;;;;;1999.90;999.90;;;;;;;6.37;100.00;-18079.88;4921573;29;20232;-28
2021/05/07 00:42:33;;;;;;;1999.90;999.90;;;;;;;6.55;100.00;-18084.56;4922066;29;20345;-28
2021/05/07 00:45:23;;;;;;;1999.90;999.90;;;;;;;6.53;100.00;-18084.16;4928285;29;20205;-29
2021/05/07 00:48:10;;;;;;;1999.90;999.90;;;;;;;6.47;100.00;-18082.56;4922286;29;20285;-29
2021/05/07 00:51:00;;;;;;;1999.90;999.90;;;;;;;6.56;100.00;-18084.84;4922611;29;20293;-28
2021/05/07 00:53:47;;;;;;;1999.90;999.90;;;;;;;6.51;100.00;-18083.63;4921909;29;20346;-28
2021/05/07 00:56:33;;;;;;;1999.90;999.90;;;;;;;6.71;100.00;-18088.72;4922010;29;20612;-28
2021/05/07 00:59:19;;;;;;;1999.90;999.90;;;;;;;6.45;100.00;-18081.88;4921467;29;20249;-28
2021/05/07 01:02:07;;;;;;;1999.90;999.90;;;;;;;6.49;100.00;-18083.09;4926203;29;20205;-28
2021/05/07 01:04:53;;;;;;;1999.90;999.90;;;;;;;6.40;100.00;-18080.69;4922342;29;20229;-27
2021/05/07 01:07:40;;;;;;;1999.90;999.90;;;;;;;6.18;100.00;-18074.91;4922532;29;20472;-28
2021/05/07 01:10:26;;;;;;;1999.90;999.90;;;;;;;6.02;100.00;-18070.63;4921660;29;20206;-30
2021/05/07 01:13:14;;;;;;;1999.90;999.90;;;;;;;5.99;100.00;-18069.81;4921749;29;20369;-30
2021/05/07 01:16:04;;;;;;;1999.90;999.90;;;;;;;6.15;100.00;-18073.97;4924175;29;20276;-30
2021/05/07 01:18:50;;;;;;;1999.90;999.90;;;;;;;6.06;100.00;-18071.56;4921176;29;20228;-28
2021/05/07 01:21:37;;;;;;;1999.90;999.90;;;;;;;6.17;100.00;-18074.50;4921974;29;20204;-30
2021/05/07 01:24:25;;;;;;;1999.90;999.90;;;;;;;5.94;100.00;-18068.34;4921544;29;20217;-28
2021/05/07 01:27:11;;;;;;;1999.90;999.90;;;;;;;5.71;100.00;-18062.44;4921606;29;20261;-29
2021/05/07 01:29:58;;;;;;;1999.90;999.90;;;;;;;5.75;100.00;-18063.50;4922251;29;20193;-30
2021/05/07 01:32:44;;;;;;;1999.90;999.90;;;;;;;5.53;100.00;-18057.59;4922780;29;20266;-29
2021/05/07 01:35:35;;;;;;;1999.90;999.90;;;;;;;5.26;100.00;-18050.34;4921484;29;20643;-29
2021/05/07 01:38:25;;;;;;;1999.90;999.90;;;;;;;5.29;100.00;-18051.16;4921599;29;20226;-29
2021/05/07 01:41:14;;;;;;;1999.90;999.90;;;;;;;5.60;100.00;-18059.47;4921436;29;20212;-30
2021/05/07 01:43:59;;;;;;;1999.90;999.90;;;;;;;5.46;100.00;-18055.84;4922758;29;20213;-30
2021/05/07 01:46:45;;;;;;;1999.90;999.90;;;;;;;5.26;100.00;-18050.34;4924637;29;20226;-29
2021/05/07 01:49:31;;;;;;;1999.90;999.90;;;;;;;5.38;100.00;-18053.56;4923360;29;20474;-29
2021/05/07 01:52:20;;;;;;;1999.90;999.90;;;;;;;5.45;100.00;-18055.44;4921030;29;20261;-29
2021/05/07 01:55:11;;;;;;;1999.90;999.90;;;;;;;5.56;100.00;-18058.28;4921180;29;20362;-29
2021/05/07 01:57:57;;;;;;;1999.90;999.90;;;;;;;5.58;100.00;-18058.94;4921694;29;20225;-29
2021/05/07 02:00:44;;;;;;;1999.90;999.90;;;;;;;5.76;100.00;-18063.78;4925317;29;20312;-29
2021/05/07 02:03:30;;;;;;;1999.90;999.90;;;;;;;5.74;100.00;-18063.25;4926817;29;20365;-30
2021/05/07 02:06:18;;;;;;;1999.90;999.90;;;;;;;5.70;100.00;-18062.16;4921100;29;20204;-29
2021/05/07 02:09:05;;;;;;;1999.90;999.90;;;;;;;5.79;100.00;-18064.44;4920953;29;20296;-29
2021/05/07 02:11:53;;;;;;;1999.90;999.90;;;;;;;5.87;100.00;-18066.59;4920818;29;20217;-29
2021/05/07 02:14:39;;;;;;;1999.90;999.90;;;;;;;5.98;100.00;-18069.41;4920718;29;20208;-29
2021/05/07 02:17:25;;;;;;;1999.90;999.90;;;;;;;5.94;100.00;-18068.47;4920373;29;20225;-29
2021/05/07 02:20:13;;;;;;;1999.90;999.90;;;;;;;5.66;100.00;-18060.97;4921130;29;20262;-29
2021/05/07 02:23:00;;;;;;;1999.90;999.90;;;;;;;6.00;100.00;-18070.09;4924804;29;20312;-29
2021/05/07 02:25:49;;;;;;;1999.90;999.90;;;;;;;5.38;100.00;-18053.56;4927783;29;20643;-30
2021/05/07 02:28:35;;;;;;;1999.90;999.90;;;;;;;5.82;100.00;-18065.38;4923901;29;20252;-29
2021/05/07 02:31:21;;;;;;;1999.90;999.90;;;;;;;6.03;100.00;-18070.75;4923822;29;20504;-29
2021/05/07 02:34:07;;;;;;;1999.90;999.90;;;;;;;5.50;100.00;-18056.94;4923679;29;20312;-29
2021/05/07 02:36:53;;;;;;;1999.90;999.90;;;;;;;5.33;100.00;-18052.22;4924063;29;20265;-29
2021/05/07 02:39:39;;;;;;;1999.90;999.90;;;;;;;5.41;100.00;-18054.50;4924341;29;20502;-29
2021/05/07 02:42:26;;;;;;;1999.90;999.90;;;;;;;5.71;100.00;-18062.44;4929356;29;20233;-29
2021/05/07 02:45:14;;;;;;;1999.90;999.90;;;;;;;5.77;100.00;-18064.03;4925870;29;20205;-29
2021/05/07 02:48:00;;;;;;;1999.90;999.90;;;;;;;5.76;100.00;-18063.63;4924087;29;20234;-29
2021/05/07 02:50:48;;;;;;;1999.90;999.90;;;;;;;5.77;100.00;-18064.03;4923221;29;20201;-29
2021/05/07 02:53:35;;;;;;;1999.90;999.90;;;;;;;5.65;100.00;-18060.69;4922918;29;20357;-29
2021/05/07 02:56:21;;;;;;;1999.90;999.90;;;;;;;5.59;100.00;-18059.22;4925168;29;20205;-29
2021/05/07 02:59:06;;;;;;;1999.90;999.90;;;;;;;5.40;100.00;-18054.09;4923885;29;20499;-29
2021/05/07 03:01:54;;;;;;;1999.90;999.90;;;;;;;5.46;100.00;-18055.72;4923775;29;20322;-29
2021/05/07 03:04:40;;;;;;;1999.90;999.90;;;;;;;5.64;100.00;-18060.56;4923680;29;20616;-29
2021/05/07 03:07:30;;;;;;;1999.90;999.90;;;;;;;5.87;100.00;-18066.59;4923315;29;20201;-29
2021/05/07 03:10:16;;;;;;;1999.90;999.90;;;;;;;5.86;100.00;-18066.31;4924813;29;20508;-29
2021/05/07 03:13:02;;;;;;;1999.90;999.90;;;;;;;5.64;100.00;-18060.56;4926667;29;20208;-29
2021/05/07 03:15:52;;;;;;;1999.90;999.90;;;;;;;5.83;100.00;-18065.66;4924566;29;20424;-29
2021/05/07 03:18:38;;;;;;;1999.90;999.90;;;;;;;5.80;100.00;-18064.84;4923472;29;20224;-29
2021/05/07 03:21:25;;;;;;;1999.90;999.90;;;;;;;5.87;100.00;-18066.72;4922817;29;20212;-29
2021/05/07 03:24:12;;;;;;;1999.90;999.90;;;;;;;6.01;100.00;-18070.22;4923126;29;20220;-29
2021/05/07 03:26:58;;;;;;;1999.90;999.90;;;;;;;6.02;100.00;-18070.50;4926374;29;20421;-30
2021/05/07 03:29:44;;;;;;;1999.90;999.90;;;;;;;5.72;100.00;-18062.69;4922693;29;20332;-30
2021/05/07 03:32:31;;;;;;;1999.90;999.90;;;;;;;5.48;100.00;-18056.38;4922390;29;20205;-30
2021/05/07 03:35:18;;;;;;;1999.90;999.90;;;;;;;5.72;100.00;-18062.69;4923014;29;20615;-29
2021/05/07 03:38:05;;;;;;;1999.90;999.90;;;;;;;5.67;100.00;-18061.34;4922569;29;20213;-30
2021/05/07 03:40:51;;;;;;;1999.90;999.90;;;;;;;5.52;100.00;-18057.34;4925402;29;20305;-29
2021/05/07 03:43:37;;;;;;;1999.90;999.90;;;;;;;5.59;100.00;-18059.22;4928291;29;20494;-30
2021/05/07 03:46:25;;;;;;;1999.90;999.90;;;;;;;5.78;100.00;-18064.19;4923329;29;20502;-30
2021/05/07 03:49:14;;;;;;;1999.90;999.90;;;;;;;5.64;100.00;-18060.56;4922545;29;20202;-29
2021/05/07 03:52:01;;;;;;;1999.90;999.90;;;;;;;5.39;100.00;-18053.84;4922676;29;20293;-29
2021/05/07 03:54:46;;;;;;;1999.90;999.90;;;;;;;5.34;100.00;-18052.63;4922108;29;20273;-29
2021/05/07 03:57:32;;;;;;;1999.90;999.90;;;;;;;5.54;100.00;-18057.88;4925627;29;20209;-30
2021/05/07 04:00:18;;;;;;;1999.90;999.90;;;;;;;5.33;100.00;-18052.22;4926356;29;20224;-29
2021/05/07 04:03:06;;;;;;;1999.90;999.90;;;;;;;5.04;100.00;-18044.56;4922846;29;20269;-30
2021/05/07 04:05:55;;;;;;;1999.90;999.90;;;;;;;5.24;100.00;-18049.81;4922803;29;20208;-30
2021/05/07 04:08:43;;;;;;;1999.90;999.90;;;;;;;5.25;100.00;-18050.09;4921843;29;20619;-29
2021/05/07 04:11:31;;;;;;;1999.90;999.90;;;;;;;5.18;100.00;-18048.47;4922183;29;20205;-29
2021/05/07 04:14:18;;;;;;;1999.90;999.90;;;;;;;5.11;100.00;-18046.59;4926786;29;20277;-30
2021/05/07 04:17:03;;;;;;;1999.90;999.90;;;;;;;5.57;100.00;-18058.69;4922144;29;20209;-29
2021/05/07 04:19:49;;;;;;;1999.90;999.90;;;;;;;5.45;100.00;-18055.44;4922292;29;20739;-30
2021/05/07 04:22:37;;;;;;;1999.90;999.90;;;;;;;5.64;100.00;-18060.41;4922373;29;20205;-30
2021/05/07 04:25:24;;;;;;;1999.90;999.90;;;;;;;5.63;100.00;-18060.16;4921426;29;20548;-30
2021/05/07 04:28:09;;;;;;;1999.90;999.90;;;;;;;5.85;100.00;-18066.19;4921665;29;20256;-30
2021/05/07 04:30:55;;;;;;;1999.90;999.90;;;;;;;5.31;100.00;-18051.69;4924572;29;20283;-30
2021/05/07 04:33:45;;;;;;;1999.90;999.90;;;;;;;5.72;100.00;-18062.69;4926081;29;20205;-30
2021/05/07 04:36:32;;;;;;;1999.90;999.90;;;;;;;5.26;100.00;-18050.34;4920901;29;20501;-30
2021/05/07 04:39:18;;;;;;;1999.90;999.90;;;;;;;5.80;100.00;-18064.84;4922571;29;20221;-30
2021/05/07 04:42:06;;;;;;;1999.90;999.90;;;;;;;5.91;100.00;-18067.66;4922315;29;20530;-30
2021/05/07 04:44:52;;;;;;;1999.90;999.90;;;;;;;5.69;100.00;-18061.91;4921514;29;20205;-30
2021/05/07 04:47:38;;;;;;;1999.90;999.90;;;;;;;5.71;100.00;-18062.44;4923525;29;20237;-30
2021/05/07 04:50:25;;;;;;;1999.90;999.90;;;;;;;5.72;100.00;-18062.69;4921308;29;20511;-29
2021/05/07 04:53:13;;;;;;;1999.90;999.90;;;;;;;5.47;100.00;-18056.13;4921098;29;20301;-29
2021/05/07 04:56:00;;;;;;;1999.90;999.90;;;;;;;5.62;100.00;-18060.00;4920961;29;20207;-30
2021/05/07 04:58:47;;;;;;;1999.90;999.90;;;;;;;6.12;100.00;-18073.31;4921036;29;20328;-30
2021/05/07 05:01:34;;;;;;;1999.90;999.90;;;;;;;5.98;100.00;-18069.41;4921546;29;20213;-30
2021/05/07 05:04:21;;;;;;;1999.90;999.90;;;;;;;6.07;100.00;-18071.97;4922900;29;20205;-30
2021/05/07 05:07:08;;;;;;;1999.90;999.90;;;;;;;5.86;100.00;-18066.47;4921553;29;20241;-30
2021/05/07 05:09:55;;;;;;;1999.90;999.90;;;;;;;6.38;100.00;-18080.16;4921691;29;20205;-30
2021/05/07 05:12:41;;;;;;;1999.90;999.90;;;;;;;6.20;100.00;-18075.44;4922235;29;20273;-30
2021/05/07 05:15:27;;;;;;;1999.90;999.90;;;;;;;6.48;100.00;-18082.84;4921215;29;20205;-30
2021/05/07 05:18:26;;;;;;;1999.90;999.90;;;;;;;6.42;100.00;-18081.22;4922303;29;20204;-30
2021/05/07 05:21:12;;;;;;;1999.90;999.90;;;;;;;6.77;100.00;-18090.47;4920916;29;20209;-30
2021/05/07 05:24:04;;;;;;;1999.90;999.90;;;;;;;6.96;100.00;-18095.44;4922570;29;20209;-30
2021/05/07 05:26:51;;;;;;;1999.90;999.90;;;;;;;6.40;100.00;-18080.69;4920854;29;20209;-30
2021/05/07 05:29:37;;;;;;;1999.90;999.90;;;;;;;6.85;100.00;-18092.47;4920434;29;20236;-30
2021/05/07 05:32:24;;;;;;;1999.90;999.90;;;;;;;6.04;100.00;-18071.03;4921211;29;20197;-30
2021/05/07 05:35:12;;;;;;;1999.90;999.90;;;;;;;6.46;100.00;-18082.16;4920833;29;20205;-30
2021/05/07 05:37:58;;;;;;;1999.90;999.90;;;;;;;5.82;100.00;-18065.38;4932413;29;20201;-30
2021/05/07 05:40:47;;;;;;;1999.90;999.90;;;;;;;6.40;100.00;-18080.69;4920360;29;20233;-30
2021/05/07 05:43:32;;;;;;;1999.90;999.90;;;;;;;6.74;100.00;-18089.53;4920596;29;20213;-30
2021/05/07 05:46:19;;;;;;;1999.90;999.90;;;;;;;6.29;100.00;-18077.72;4920530;29;20346;-30
2021/05/07 05:49:08;;;;;;;1999.90;999.90;;;;;;;7.00;100.00;-18096.50;4921363;29;20209;-30
2021/05/07 05:51:54;;;;;;;1999.90;999.90;;;;;;;6.98;100.00;-18095.97;4921147;29;20632;-30
2021/05/07 05:54:42;;;;;;;1999.90;999.90;;;;;;;7.49;100.00;-18109.38;4920140;29;20353;-30
2021/05/07 05:57:30;;;;;;;1999.90;999.90;;;;;;;7.46;100.00;-18108.56;4909865;29;20515;-30
2021/05/07 06:00:17;;;;;;;1999.90;999.90;;;;;;;7.77;100.00;-18116.88;4924303;29;20524;-30
2021/05/07 06:03:06;;;;;;;1999.90;999.90;;;;;;;7.22;100.00;-18102.41;4924121;29;20765;-30
2021/05/07 06:05:53;;;;;;;1999.90;999.90;;;;;;;7.47;100.00;-18108.84;4923965;29;20499;-30
2021/05/07 06:08:38;;;;;;;1999.90;999.90;;;;;;;8.29;100.00;-18130.53;4924198;29;20209;-30
2021/05/07 06:11:25;;;;;;;1999.90;999.90;;;;;;;7.36;100.00;-18106.03;4924643;29;20207;-30
2021/05/07 06:14:11;;;;;;;1999.90;999.90;;;;;;;7.16;100.00;-18100.66;4927090;29;20301;-30
2021/05/07 06:16:59;;;;;;;1999.90;999.90;;;;;;;6.62;100.00;-18086.31;4934145;29;20207;-30
2021/05/07 06:19:48;;;;;;;1999.90;999.90;;;;;;;7.40;100.00;-18107.09;4923788;29;20237;-30
2021/05/07 06:22:35;;;;;;;1999.90;999.90;;;;;;;7.71;100.00;-18115.28;4923396;29;20610;-30
2021/05/07 06:25:25;;;;;;;1999.90;999.90;;;;;;;7.60;100.00;-18112.31;4923714;29;20588;-30
2021/05/07 06:28:11;;;;;;;1999.90;999.90;;;;;;;7.62;100.00;-18112.84;4923689;29;20245;-30
2021/05/07 06:31:00;;;;;;;1999.90;999.90;;;;;;;7.33;100.00;-18105.22;4924283;29;20257;-30
2021/05/07 06:33:46;;;;;;;1999.90;999.90;;;;;;;7.25;100.00;-18103.06;4923063;29;20691;-30
2021/05/07 06:36:38;;;;;;;1999.90;999.90;;;;;;;7.01;100.00;-18096.78;4923072;29;20210;-31
2021/05/07 06:39:30;;;;;;;1999.90;999.90;;;;;;;7.36;100.00;-18106.03;4923626;29;20230;-29
2021/05/07 06:42:16;;;;;;;1999.90;999.90;;;;;;;7.84;100.00;-18118.63;4928596;29;20292;-31
2021/05/07 06:45:10;;;;;;;1999.90;999.90;;;;;;;7.52;100.00;-18110.31;4926085;29;20206;-30
2021/05/07 06:47:56;;;;;;;1999.90;999.90;;;;;;;6.61;100.00;-18086.03;4923842;29;20286;-30
2021/05/07 06:50:42;;;;;;;1999.90;999.90;;;;;;;6.62;100.00;-18086.31;4923889;29;20271;-30
2021/05/07 06:53:28;;;;;;;1999.90;999.90;;;;;;;7.01;100.00;-18096.78;4915391;29;20286;-30
2021/05/07 06:56:20;;;;;;;1999.90;999.90;;;;;;;7.13;100.00;-18100.00;4923790;29;20206;-30
2021/05/07 06:59:07;;;;;;;1999.90;999.90;;;;;;;6.88;100.00;-18093.28;4930305;29;20205;-30
2021/05/07 07:01:53;;;;;;;1999.90;999.90;;;;;;;7.36;100.00;-18105.91;4925738;29;20338;-30
2021/05/07 07:04:45;;;;;;;1999.90;999.90;;;;;;;7.60;100.00;-18112.47;4923091;29;20208;-28
2021/05/07 07:07:36;;;;;;;1999.90;999.90;;;;;;;7.06;100.00;-18098.13;4922448;29;20209;-30
2021/05/07 07:10:37;;;;;;;1999.90;999.90;;;;;;;7.75;100.00;-18116.22;4922393;29;20209;-30
2021/05/07 07:13:25;;;;;;;1999.90;999.90;;;;;;;7.04;100.00;-18097.59;4923249;29;20600;-30
2021/05/07 07:16:11;;;;;;;1999.90;999.90;;;;;;;7.48;100.00;-18109.09;4923151;29;20213;-30
2021/05/07 07:19:02;;;;;;;1999.90;999.90;;;;;;;7.31;100.00;-18104.56;4923465;29;20313;-30
2021/05/07 07:21:50;;;;;;;1999.90;999.90;;;;;;;7.06;100.00;-18097.97;4925946;29;20587;-30
2021/05/07 07:24:36;;;;;;;1999.90;999.90;;;;;;;6.79;100.00;-18091.00;4923804;29;20251;-30
2021/05/07 07:27:24;;;;;;;1999.90;999.90;;;;;;;7.87;100.00;-18119.56;4927480;29;20297;-30
2021/05/07 07:30:15;;;;;;;1999.90;999.90;;;;;;;7.87;100.00;-18119.56;4922668;29;20502;-30
2021/05/07 07:33:01;;;;;;;1999.90;999.90;;;;;;;7.88;100.00;-18119.84;4922389;29;20456;-30
2021/05/07 07:35:47;;;;;;;1999.90;999.90;;;;;;;7.46;100.00;-18108.72;4923024;29;20275;-30
2021/05/07 07:38:35;;;;;;;1999.90;999.90;;;;;;;7.21;100.00;-18102.13;4924731;29;20228;-30
2021/05/07 07:41:22;;;;;;;1999.90;999.90;;;;;;;7.04;100.00;-18097.59;4922349;29;20202;-30
2021/05/07 07:44:10;;;;;;;1999.90;999.90;;;;;;;7.26;100.00;-18103.47;4922633;29;20204;-30
2021/05/07 07:46:57;;;;;;;1999.90;999.90;;;;;;;7.43;100.00;-18107.78;4922307;29;20306;-30
2021/05/07 07:49:44;;;;;;;1999.90;999.90;;;;;;;7.20;100.00;-18101.72;4922213;29;20210;-30
2021/05/07 07:52:35;;;;;;;1999.90;999.90;;;;;;;7.21;100.00;-18102.00;4921120;29;20315;-30
2021/05/07 07:55:21;;;;;;;1999.90;999.90;;;;;;;7.28;100.00;-18103.88;4923634;29;20197;-30
2021/05/07 07:58:08;;;;;;;1999.90;999.90;;;;;;;7.09;100.00;-18098.78;4921788;29;20258;-30
2021/05/07 08:00:55;;;;;;;1999.90;999.90;;;;;;;7.54;100.00;-18110.72;4921845;29;20232;-30
2021/05/07 08:03:41;;;;;;;1999.90;999.90;;;;;;;7.56;100.00;-18111.25;4922597;29;20342;-30
2021/05/07 08:06:28;;;;;;;1999.90;999.90;;;;;;;7.25;100.00;-18103.22;4922277;29;20522;-30
2021/05/07 08:09:16;;;;;;;1999.90;999.90;;;;;;;7.41;100.00;-18107.22;4922038;29;20210;-30
2021/05/07 08:12:02;;;;;;;1999.90;999.90;;;;;;;7.20;100.00;-18101.88;4924533;29;20216;-30
2021/05/07 08:14:48;;;;;;;1999.90;999.90;;;;;;;7.87;100.00;-18119.56;4922413;29;20261;-30
2021/05/07 08:17:34;;;;;;;1999.90;999.90;;;;;;;8.69;100.00;-18141.00;4922374;29;20208;-31
2021/05/07 08:20:24;;;;;;;1999.90;999.90;;;;;;;8.79;100.00;-18143.81;4921565;29;20576;-31
2021/05/07 08:23:12;;;;;;;1999.90;999.90;;;;;;;8.80;100.00;-18143.94;4923067;29;20204;-31
2021/05/07 08:26:00;;;;;;;1999.90;999.90;;;;;;;8.32;100.00;-18131.22;4921671;29;20205;-30
2021/05/07 08:28:46;;;;;;;1999.90;999.90;;;;;;;9.69;100.00;-18167.50;4920725;29;20233;-31
2021/05/07 08:31:40;;;;;;;1999.90;999.90;;;;;;;11.34;100.00;-18210.97;4923919;29;20227;-31
2021/05/07 08:34:26;;;;;;;1999.90;999.90;;;;;;;9.21;100.00;-18154.91;4921557;29;20612;-30
2021/05/07 08:37:13;;;;;;;1999.90;999.90;;;;;;;9.43;100.00;-18160.69;4921145;29;20201;-31
2021/05/07 08:39:59;;;;;;;1999.90;999.90;;;;;;;8.56;100.00;-18137.66;4920552;29;20388;-30
2021/05/07 08:42:45;;;;;;;1999.90;999.90;;;;;;;8.68;100.00;-18140.72;4920710;29;20265;-30
2021/05/07 08:45:32;;;;;;;1999.90;999.90;;;;;;;7.41;100.00;-18107.22;4921441;29;20209;-30
2021/05/07 08:48:27;;;;;;;1999.90;999.90;;;;;;;8.81;100.00;-18144.34;4921245;29;20209;-31
2021/05/07 08:51:15;;;;;;;1999.90;999.90;;;;;;;10.48;100.00;-18188.25;4924265;29;20599;-31
2021/05/07 08:54:03;;;;;;;1999.90;999.90;;;;;;;10.54;100.00;-18189.84;4920706;29;20210;-31
2021/05/07 08:56:52;;;;;;;1999.90;999.90;;;;;;;10.97;100.00;-18201.22;4920354;29;20220;-31
2021/05/07 08:59:41;;;;;;;1999.90;999.90;;;;;;;11.29;100.00;-18209.63;4920729;29;20229;-31
2021/05/07 09:02:29;;;;;;;1999.90;999.90;;;;;;;11.17;100.00;-18206.41;4920499;29;20272;-31
2021/05/07 09:05:15;;;;;;;1999.90;999.90;;;;;;;9.72;100.00;-18168.31;4920599;29;20261;-31
2021/05/07 09:08:00;;;;;;;1999.90;999.90;;;;;;;9.84;100.00;-18171.38;4926183;29;20283;-31
2021/05/07 09:10:49;;;;;;;1999.90;999.90;;;;;;;11.73;100.00;-18221.25;4922881;29;20458;-31
2021/05/07 09:13:38;;;;;;;1999.90;999.90;;;;;;;11.07;100.00;-18203.75;4920432;29;20218;-31
2021/05/07 09:16:23;;;;;;;1999.90;999.90;;;;;;;10.77;100.00;-18196.00;4920153;29;20607;-31
2021/05/07 09:19:18;;;;;;;1999.90;999.90;;;;;;;11.21;97.80;-18207.63;4919672;29;20504;-31
2021/05/07 09:22:07;;;;;;;1999.90;999.90;;;;;;;11.27;94.33;-18209.09;4920211;29;20267;-30
2021/05/07 09:25:17;;;;;;;1999.90;999.90;;;;;;;9.84;96.25;-18171.50;4920715;29;20209;-32
2021/05/07 09:28:07;;;;;;;1999.90;999.90;;;;;;;9.43;100.00;-18160.53;4931197;29;20243;-32
2021/05/07 09:30:53;;;;;;;1999.90;999.90;;;;;;;8.99;100.00;-18149.16;4905119;29;20206;-31
2021/05/07 09:33:42;;;;;;;1999.90;999.90;;;;;;;8.58;100.00;-18138.19;4905901;29;20294;-31
2021/05/07 09:36:31;;;;;;;1999.90;999.90;;;;;;;8.21;100.00;-18128.41;4905571;29;20220;-32
2021/05/07 09:39:20;;;;;;;1999.90;999.90;;;;;;;8.03;100.00;-18123.72;4914914;29;20620;-31
2021/05/07 09:42:06;;;;;;;1999.90;999.90;;;;;;;8.33;100.00;-18131.63;4924028;29;20261;-32
2021/05/07 09:44:57;;;;;;;1999.90;999.90;;;;;;;8.04;100.00;-18123.97;4923625;29;20205;-31
2021/05/07 09:47:42;;;;;;;1999.90;999.90;;;;;;;8.26;100.00;-18129.88;4923892;29;20586;-31
2021/05/07 09:50:38;;;;;;;1999.90;999.90;;;;;;;8.52;100.00;-18136.72;4924605;29;20197;-31
2021/05/07 09:53:26;;;;;;;1999.90;999.90;;;;;;;8.75;100.00;-18142.59;4923650;29;20201;-31
2021/05/07 09:56:14;;;;;;;1999.90;999.90;;;;;;;8.52;100.00;-18136.59;4936437;29;20192;-31
2021/05/07 09:59:04;;;;;;;1999.90;999.90;;;;;;;8.64;100.00;-18139.94;4924732;29;20202;-31
2021/05/07 10:01:51;;;;;;;1999.90;999.90;;;;;;;9.29;100.00;-18156.94;4925868;29;20341;-31
2021/05/07 10:04:40;;;;;;;1999.90;999.90;;;;;;;10.80;100.00;-18196.66;4924193;29;20276;-31
2021/05/07 10:07:27;;;;;;;1999.90;999.90;;;;;;;11.12;100.00;-18205.22;4923876;29;20270;-31
2021/05/07 10:10:13;;;;;;;1999.90;999.90;;;;;;;12.11;96.31;-18231.13;4924022;29;20482;-31
2021/05/07 10:13:05;;;;;;;1999.90;999.90;;;;;;;11.33;97.89;-18210.69;4923852;29;20203;-31
2021/05/07 10:16:01;;;;;;;1999.90;999.90;;;;;;;11.28;100.00;-18209.50;4922503;29;20211;-31
2021/05/07 10:19:00;;;;;;;1999.90;999.90;;;;;;;9.99;100.00;-18175.41;4929600;29;20702;-31
2021/05/07 10:21:47;;;;;;;1999.90;999.90;;;;;;;8.97;100.00;-18148.63;4924214;29;20213;-31
2021/05/07 10:24:36;;;;;;;1999.90;999.90;;;;;;;8.88;100.00;-18146.09;4924994;29;20304;-30
2021/05/07 10:27:23;;;;;;;1999.90;999.90;;;;;;;9.11;100.00;-18152.25;4923686;29;20204;-30
2021/05/07 10:30:23;;;;;;;1999.90;999.90;;;;;;;8.76;100.00;-18143.00;4923693;29;20209;-31
2021/05/07 10:33:16;;;;;;;1999.90;999.90;;;;;;;10.25;100.00;-18182.22;4923805;29;20493;-31
2021/05/07 10:36:07;;;;;;;1999.90;999.90;;;;;;;11.16;100.00;-18206.16;4923289;29;20212;-31
2021/05/07 10:38:55;;;;;;;1999.90;999.90;;;;;;;11.48;100.00;-18214.56;4925931;29;20528;-31
2021/05/07 10:41:40;;;;;;;1999.90;999.90;;;;;;;11.41;100.00;-18212.81;4922720;29;20381;-31
2021/05/07 10:44:42;;;;;;;1999.90;999.90;;;;;;;11.33;91.30;-18210.69;4922668;29;20205;-31
2021/05/07 10:47:35;;;;;;;1999.90;999.90;;;;;;;12.53;87.72;-18242.34;4924724;29;20213;-31
2021/05/07 10:50:22;;;;;;;1999.90;999.90;;;;;;;12.98;90.88;-18254.22;4922836;29;20209;-30
2021/05/07 10:53:12;;;;;;;1999.90;999.90;;;;;;;12.36;85.64;-18237.81;4923838;29;20593;-31
2021/05/07 10:56:16;;;;;;;1999.90;999.90;;;;;;;11.07;88.95;-18203.88;4924266;29;20209;-31
2021/05/07 10:59:14;;;;;;;1999.90;999.90;;;;;;;10.35;95.67;-18184.91;4915652;29;20212;-31
2021/05/07 11:02:03;;;;;;;1999.90;999.90;;;;;;;10.77;97.46;-18195.84;4924634;29;20205;-31
2021/05/07 11:04:51;;;;;;;1999.90;999.90;;;;;;;10.00;100.00;-18175.66;4919241;29;20274;-30
2021/05/07 11:07:51;;;;;;;1999.90;999.90;;;;;;;10.81;97.12;-18196.94;4908622;29;20204;-30
2021/05/07 11:10:38;;;;;;;1999.90;999.90;;;;;;;11.04;96.27;-18203.22;4922065;29;20205;-30
2021/05/07 11:13:26;;;;;;;1999.90;999.90;;;;;;;11.37;92.91;-18211.91;4922431;29;20202;-31
2021/05/07 11:16:15;;;;;;;1999.90;999.90;;;;;;;11.56;92.48;-18216.84;4921789;29;20210;-31
2021/05/07 11:19:04;;;;;;;1999.90;999.90;;;;;;;10.74;86.41;-18195.06;4924552;29;20209;-30
2021/05/07 11:21:57;;;;;;;1999.90;999.90;;;;;;;11.02;91.76;-18202.53;4923605;29;20205;-30
2021/05/07 11:24:47;;;;;;;1999.90;999.90;;;;;;;11.60;91.96;-18217.78;4923348;29;20218;-30
2021/05/07 11:27:38;;;;;;;1999.90;999.90;;;;;;;11.35;93.13;-18211.38;4914479;29;20205;-30
2021/05/07 11:30:25;;;;;;;1999.90;999.90;;;;;;;12.30;86.27;-18236.22;4922566;29;20607;-31
2021/05/07 11:33:14;;;;;;;1999.90;999.90;;;;;;;12.02;84.16;-18228.88;4922704;29;20216;-30
2021/05/07 11:36:08;;;;;;;1999.90;999.90;;;;;;;11.78;92.93;-18222.47;4921850;29;20212;-30
2021/05/07 11:38:54;;;;;;;1999.90;999.90;;;;;;;11.45;89.85;-18213.91;4926005;29;20212;-30
2021/05/07 11:41:43;;;;;;;1999.90;999.90;;;;;;;10.74;93.92;-18195.19;4912253;29;20337;-30
2021/05/07 11:44:29;;;;;;;1999.90;999.90;;;;;;;10.50;92.36;-18188.78;4910974;29;20630;-30
2021/05/07 11:47:17;;;;;;;1999.90;999.90;;;;;;;9.80;97.45;-18170.44;4915060;29;20630;-30
2021/05/07 11:50:06;;;;;;;1999.90;999.90;;;;;;;9.03;100.00;-18150.09;4923046;29;20619;-30
2021/05/07 11:52:52;;;;;;;1999.90;999.90;;;;;;;9.09;100.00;-18151.72;4927319;29;20696;-31
2021/05/07 11:55:40;;;;;;;1999.90;999.90;;;;;;;9.90;100.00;-18172.97;4921605;29;20312;-30
2021/05/07 11:58:34;;;;;;;1999.90;999.90;;;;;;;11.36;100.00;-18211.63;4922405;29;20205;-30
2021/05/07 12:01:24;;;;;;;1999.90;999.90;;;;;;;11.97;100.00;-18227.66;4921256;29;20231;-31
2021/05/07 12:04:11;;;;;;;1999.90;999.90;;;;;;;12.23;100.00;-18234.47;4921408;29;20292;-29
2021/05/07 12:06:57;;;;;;;1999.90;999.90;;;;;;;12.42;100.00;-18239.53;4921057;29;20711;-29
2021/05/07 12:09:47;;;;;;;1999.90;999.90;;;;;;;12.07;100.00;-18230.34;4929983;29;20209;-29
2021/05/07 12:12:42;;;;;;;1999.90;999.90;;;;;;;12.29;100.00;-18235.94;4922458;29;20225;-30
2021/05/07 12:15:42;;;;;;;1999.90;999.90;;;;;;;11.10;100.00;-18204.69;4919726;29;20461;-29
2021/05/07 12:18:33;;;;;;;1999.90;999.90;;;;;;;10.66;100.00;-18193.06;4921721;29;20584;-32